LRTC

Tulcea Airport

Tulcea, Romania
TAF LRTC 180800Z 1809/1818 02006KT CAVOK
Issued Valid From Valid To
Oct-18 @ 08:00 UTC
(4 hours ago)
Oct-18 @ 09:00 UTC
(3 hours ago)
Oct-18 @ 18:00 UTC
(in 6 hours)
Oct-18 @ 09:00 to Oct-18 @ 18:00
TAF LRTC 180800Z 1809/1818 02006KT CAVOK
Wind Visibility Clouds Conditions
20° at 6 knots 10,000+ meters
  • No significant clouds
TAF LRTC 180800Z 1809/1818 02006KT CAVOK
Issued Oct-18 @ 08:00 UTC
(4 hours ago)
Valid From Oct-18 @ 09:00 UTC
(3 hours ago)
Valid To Oct-18 @ 18:00 UTC
(in 6 hours)
Oct-18 @ 09:00 - Oct-18 @ 18:00
Wind Visibility
20° at 6 knots 10,000+ meters
Clouds
  • No significant clouds
Conditions